Weather at Cuitaca Airstrip

Public forecast

Using degrees Celsius for public forecast. Weather courtesy of forecast.io.

Closest aviation weather report (METAR) to Cuitaca Airstrip

Closest report is Nogales International Airport, 31.5 nm (58.3 km) NW. Retrieved 2021/06/20 02:54 UTC (22 minutes ago):

KOLS 200254Z AUTO 16009KT 10SM CLR 35/09 A2985 RMK AO2 SLP020 T03500089 53014

Closest aviation forecast (TAF) to Cuitaca Airstrip

Closest forecast is Nogales International Airport, 31.5 nm (58.3 km) NW. Retrieved 2021-06-20 00:22 UTC (3 hours ago):

TAF KOLS 192320Z 2000/2024 27010G17KT P6SM SCT120 FM200300 23004KT P6SM SCT140 FM200800 VRB03KT P6SM FEW140 FM202000 27010G17KT P6SM SCT120